Latest Weather Observations for Kununurra Airport

IDW60801

Issued at 9:33 am WST Monday 26 August 2019 (issued every 10 minutes, with the page automatically refreshed every 10 minutes)

About weather observations | Map of weather stations | Latest weather observations for WA | Other Formats
Station Details ID: 002056 Name: KUNUNURRA AERO Lat: -15.78 Lon: 128.71 Height: 44.0 m
Data from the previous 72 hours. | See also: Recent months at Kununurra Airport
Date/Time
WST
Temp
°C
App
Temp
°C
Dew
Point
°C
Rel
Hum
%
Delta-T
°C
Wind Press
QNH
hPa
Press
MSL
hPa
Rain since
9am
mm
Dir  Spd
km/h
Gust
km/h
Spd
kts
Gust
kts
26/09:30am 31.3 26.7 1.6 15 14.7 NE 15 20 8 11 1015.7 1015.5 0.0
26/09:00am 29.9 24.9 -1.5 13 14.6 E 15 20 8 11 1015.8 1015.6 0.0
26/08:30am 29.0 23.2 -1.2 14 14.0 E 19 24 10 13 1015.6 1015.4 0.0
26/08:00am 27.5 23.1 2.6 20 12.2 SE 15 20 8 11 1015.4 1015.2 0.0
26/07:30am 24.4 22.5 7.5 34 8.9 SE 7 9 4 5 1015.2 1015.0 0.0
26/07:00am 21.9 21.3 12.2 54 5.5 SSW 7 9 4 5 1014.9 1014.7 0.0
26/06:30am 17.2 17.5 13.3 78 2.2 S 4 7 2 4 1014.8 1014.6 0.0
26/06:00am 14.3 13.5 11.1 81 1.7 S 6 7 3 4 1014.7 1014.5 0.0
26/05:30am 13.7 13.8 11.6 87 1.1 SE 2 6 1 3 1014.2 1014.0 0.0
26/05:00am 13.7 14.4 12.1 90 0.9 CALM 0 0 0 0 1013.8 1013.6 0.0
26/04:30am 14.0 14.5 11.7 86 1.2 CALM 0 0 0 0 1013.5 1013.3 0.0
26/04:00am 14.2 14.8 11.9 86 1.2 CALM 0 0 0 0 1013.2 1013.0 0.0
26/03:30am 14.8 14.8 12.3 85 1.4 ENE 4 7 2 4 1012.9 1012.7 0.0
26/03:00am 15.5 15.9 12.6 83 1.6 W 2 6 1 3 1012.8 1012.6 0.0
26/02:30am 16.9 17.7 13.8 82 1.8 SSE 2 9 1 5 1012.8 1012.6 0.0
26/02:00am 15.4 16.1 12.2 81 1.7 CALM 0 6 0 3 1012.8 1012.6 0.0
26/01:30am 15.7 16.8 13.5 87 1.2 CALM 0 0 0 0 1012.9 1012.7 0.0
26/01:00am 15.6 16.2 12.0 79 2.0 CALM 0 0 0 0 1013.0 1012.8 0.0
26/12:30am 16.1 16.9 12.7 80 1.9 CALM 0 0 0 0 1013.2 1013.0 0.0
26/12:00am 16.4 17.4 13.3 82 1.7 CALM 0 0 0 0 1013.3 1013.1 0.0
 
Date/Time
WST
Temp
°C
App
Temp
°C
Dew
Point
°C
Rel
Hum
%
Delta-T
°C
Wind Press
QNH
hPa
Press
MSL
hPa
Rain since
9am
mm
Dir  Spd
km/h
Gust
km/h
Spd
kts
Gust
kts
25/11:30pm 16.8 17.8 13.1 79 2.1 CALM 0 0 0 0 1013.4 1013.2 0.0
25/11:00pm 17.7 19.1 14.4 81 1.9 CALM 0 0 0 0 1013.6 1013.4 0.0
25/10:30pm 17.6 18.1 12.9 74 2.6 NNE 2 6 1 3 1013.7 1013.5 0.0
25/10:00pm 17.6 17.3 12.7 73 2.7 NNE 6 9 3 5 1013.7 1013.5 0.0
25/09:30pm 19.4 20.2 12.4 64 3.9 CALM 0 0 0 0 1013.7 1013.5 0.0
25/09:00pm 19.1 19.0 13.3 69 3.3 N 6 7 3 4 1013.7 1013.5 0.0
25/08:30pm 20.3 21.1 13.7 66 3.8 ENE 2 7 1 4 1013.8 1013.6 0.0
25/08:00pm 19.8 20.9 13.5 67 3.6 CALM 0 0 0 0 1013.6 1013.4 0.0
25/07:30pm 21.5 21.0 12.6 57 5.1 W 7 7 4 4 1013.4 1013.2 0.0
25/07:00pm 24.4 23.6 11.7 45 7.2 NW 7 7 4 4 1013.0 1012.8 0.0
25/06:30pm 24.2 22.8 9.4 39 8.1 NNW 7 7 4 4 1012.5 1012.3 0.0
25/06:00pm 24.4 21.4 7.5 34 8.9 N 13 20 7 11 1012.0 1011.8 0.0
25/05:30pm 26.1 23.3 8.6 33 9.5 NNE 13 15 7 8 1011.6 1011.4 0.0
25/05:00pm 29.5 26.4 7.4 25 12.0 N 13 17 7 9 1011.3 1011.1 0.0
25/04:30pm 32.2 28.6 4.9 18 14.4 N 13 17 7 9 1011.0 1010.8 0.0
25/04:00pm 34.2 29.7 -6.5 7 18.0 SSE 9 13 5 7 1010.9 1010.7 0.0
25/03:30pm 34.3 29.3 -4.6 8 17.8 ESE 13 24 7 13 1010.7 1010.5 0.0
25/03:00pm 34.3 29.5 -6.4 7 18.1 SSW 11 15 6 8 1010.7 1010.5 0.0
25/02:30pm 34.4 29.6 -6.3 7 18.1 SSE 11 17 6 9 1011.0 1010.8 0.0
25/02:00pm 34.4 29.6 -6.3 7 18.1 ESE 11 26 6 14 1011.3 1011.1 0.0
25/01:30pm 34.5 28.2 -6.3 7 18.1 ESE 19 28 10 15 1011.6 1011.4 0.0
25/01:00pm 34.0 28.4 -6.6 7 17.9 ENE 15 26 8 14 1012.1 1011.9 0.0
25/12:30pm 34.2 29.0 -6.5 7 18.0 ENE 13 24 7 13 1012.6 1012.4 0.0
25/12:00pm 34.5 28.5 -6.3 7 18.1 E 17 30 9 16 1013.2 1013.0 0.0
25/11:30am 33.3 26.7 -7.1 7 17.6 E 20 35 11 19 1013.9 1013.7 0.0
25/11:00am 33.1 26.3 -5.5 8 17.2 ESE 22 33 12 18 1014.5 1014.3 0.0
25/10:30am 32.5 24.3 -7.7 7 17.2 E 28 35 15 19 1015.1 1014.9 0.0
25/10:00am 32.0 23.2 -6.3 8 16.7 E 32 41 17 22 1015.5 1015.3 0.0
25/09:30am 30.6 24.1 -7.4 8 16.1 E 19 28 10 15 1015.9 1015.7 0.0
25/09:00am 29.7 23.7 -6.5 9 15.4 ESE 17 26 9 14 1016.0 1015.8 0.0
25/08:30am 26.4 23.6 3.0 22 11.5 S 7 11 4 6 1016.1 1015.9 0.0
25/08:00am 24.8 22.7 1.7 22 11.0 S 2 7 1 4 1016.2 1016.0 0.0
25/07:30am 22.4 20.6 0.9 24 9.9 CALM 0 0 0 0 1016.1 1015.9 0.0
25/07:28am 22.2 20.3 0.7 24 9.8 CALM 0 0 0 0 1016.0 1015.8 0.0
25/07:00am 17.2 16.8 8.1 55 4.6 CALM 0 0 0 0 1015.7 1015.5 0.0
25/06:30am 13.2 12.6 7.2 67 2.9 CALM 0 0 0 0 1015.2 1015.0 0.0
25/06:00am 11.2 10.4 6.3 72 2.3 CALM 0 0 0 0 1014.9 1014.7 0.0
25/05:30am 10.5 9.7 6.5 76 1.9 CALM 0 0 0 0 1014.4 1014.2 0.0
25/05:00am 11.6 11.0 7.3 75 2.1 CALM 0 0 0 0 1014.0 1013.8 0.0
25/04:30am 10.8 10.2 7.3 79 1.7 CALM 0 0 0 0 1013.5 1013.3 0.0
25/04:00am 11.8 11.3 7.9 77 1.9 CALM 0 0 0 0 1013.3 1013.1 0.0
25/03:30am 11.4 10.7 7.1 75 2.1 CALM 0 0 0 0 1013.1 1012.9 0.0
25/03:00am 12.1 11.3 6.6 69 2.6 CALM 0 0 0 0 1013.0 1012.8 0.0
25/02:30am 13.1 12.4 7.1 67 2.9 CALM 0 0 0 0 1013.1 1012.9 0.0
25/02:00am 12.9 11.8 6.7 66 3.0 SSE 2 7 1 4 1013.4 1013.2 0.0
25/01:30am 14.4 13.0 8.8 69 2.8 SSE 6 7 3 4 1013.4 1013.2 0.0
25/01:00am 13.6 12.3 9.3 75 2.2 SE 6 7 3 4 1013.7 1013.5 0.0
25/12:30am 14.0 12.1 6.6 61 3.6 SSE 6 6 3 3 1013.7 1013.5 0.0
25/12:00am 13.8 12.6 8.0 68 2.9 SE 4 6 2 3 1013.8 1013.6 0.0
 
Date/Time
WST
Temp
°C
App
Temp
°C
Dew
Point
°C
Rel
Hum
%
Delta-T
°C
Wind Press
QNH
hPa
Press
MSL
hPa
Rain since
9am
mm
Dir  Spd
km/h
Gust
km/h
Spd
kts
Gust
kts
24/11:30pm 14.5 12.8 7.5 63 3.5 SE 6 7 3 4 1014.1 1013.9 0.0
24/11:00pm 14.9 13.5 7.2 60 3.8 ESE 4 7 2 4 1014.5 1014.3 0.0
24/10:30pm 15.6 14.8 6.6 55 4.4 CALM 0 6 0 3 1014.6 1014.4 0.0
24/10:00pm 16.0 14.6 3.8 44 5.6 CALM 0 0 0 0 1014.7 1014.5 0.0
24/09:30pm 16.6 15.2 3.7 42 6.0 CALM 0 2 0 1 1014.6 1014.4 0.0
24/09:00pm 16.9 15.7 6.4 50 5.2 ESE 2 6 1 3 1014.4 1014.2 0.0
24/08:30pm 18.5 16.7 7.3 48 5.7 ESE 6 7 3 4 1014.1 1013.9 0.0
24/08:00pm 18.5 16.1 7.0 47 5.8 E 9 11 5 6 1013.8 1013.6 0.0
24/07:30pm 19.1 16.9 6.2 43 6.4 ESE 7 9 4 5 1013.5 1013.3 0.0
24/07:00pm 19.4 18.1 9.3 52 5.3 SE 6 7 3 4 1013.0 1012.8 0.0
24/06:30pm 21.3 19.0 4.8 34 8.1 S 6 6 3 3 1012.8 1012.6 0.0
24/06:00pm 24.8 21.9 1.7 22 11.0 S 6 9 3 5 1012.6 1012.4 0.0
24/05:30pm 29.1 24.7 -2.1 13 14.3 S 11 13 6 7 1012.1 1011.9 0.0
24/05:00pm 31.1 26.7 -2.8 11 15.6 S 11 15 6 8 1011.8 1011.6 0.0
24/04:30pm 32.7 28.5 -4.3 9 16.8 SSE 9 11 5 6 1011.6 1011.4 0.0
24/04:00pm 33.7 28.6 -5.1 8 17.5 S 13 17 7 9 1011.5 1011.3 0.0
24/03:30pm 33.8 29.3 -6.8 7 17.8 S 9 13 5 7 1011.3 1011.1 0.0
24/03:00pm 34.1 28.9 -6.5 7 18.0 S 13 19 7 10 1011.4 1011.2 0.0
24/02:30pm 33.9 28.7 -6.7 7 17.9 SSW 13 20 7 11 1011.7 1011.5 0.0
24/02:00pm 33.6 28.7 -6.9 7 17.7 SSE 11 20 6 11 1012.2 1012.0 0.0
24/01:30pm 33.4 28.1 -7.0 7 17.6 SSE 13 20 7 11 1012.6 1012.4 0.0
24/01:00pm 33.4 28.1 -7.0 7 17.6 ESE 13 24 7 13 1013.0 1012.8 0.0
24/12:30pm 33.4 28.1 -7.0 7 17.6 SSE 13 17 7 9 1013.7 1013.5 0.0
24/12:00pm 32.4 27.1 -7.8 7 17.1 SE 13 20 7 11 1014.2 1014.0 0.0
24/11:30am 31.9 26.7 -6.4 8 16.6 ESE 13 20 7 11 1014.8 1014.6 0.0
24/11:00am 31.9 25.5 -6.4 8 16.6 E 19 28 10 15 1015.5 1015.3 0.0
24/10:30am 30.9 24.9 -7.1 8 16.2 ESE 17 30 9 16 1016.1 1015.9 0.0
24/10:00am 29.8 23.3 -6.4 9 15.4 SE 20 28 11 15 1016.7 1016.6 0.0
24/09:30am 29.7 23.3 -6.5 9 15.4 ESE 19 28 10 15 1017.1 1017.0 0.0
24/09:00am 28.8 23.7 -2.3 13 14.1 SE 15 24 8 13 1017.3 1017.2 0.0
24/08:30am 25.9 22.0 -1.8 16 12.4 S 9 11 5 6 1017.6 1017.5 0.0
24/08:00am 24.4 22.0 0.0 20 11.2 S 2 6 1 3 1017.7 1017.6 0.0
24/07:30am 20.9 20.2 6.8 40 7.2 CALM 0 0 0 0 1017.6 1017.5 0.0
24/07:00am 17.7 16.9 6.6 48 5.5 CALM 0 0 0 0 1017.4 1017.3 0.0
24/06:30am 13.2 12.4 6.3 63 3.3 CALM 0 0 0 0 1017.1 1017.0 0.0
24/06:00am 10.5 8.6 6.5 76 1.9 NW 6 7 3 4 1016.7 1016.6 0.0
24/05:30am 10.5 9.7 6.6 77 1.8 CALM 0 0 0 0 1016.2 1016.0 0.0
24/05:00am 11.6 11.2 8.1 79 1.7 CALM 0 0 0 0 1015.8 1015.6 0.0
24/04:30am 11.2 9.6 8.1 81 1.5 SSE 6 7 3 4 1015.4 1015.2 0.0
24/04:00am 11.2 10.8 8.4 83 1.4 CALM 0 0 0 0 1015.3 1015.1 0.0
24/03:30am 11.0 10.2 6.6 74 2.1 CALM 0 0 0 0 1015.3 1015.1 0.0
24/03:00am 11.2 10.7 7.9 80 1.6 CALM 0 0 0 0 1015.1 1014.9 0.0
24/02:30am 11.2 10.6 7.3 77 1.9 CALM 0 0 0 0 1015.1 1014.9 0.0
24/02:00am 11.5 10.7 6.4 71 2.4 CALM 0 0 0 0 1015.2 1015.0 0.0
24/01:30am 12.0 11.5 7.9 76 2.0 CALM 0 0 0 0 1015.2 1015.0 0.0
24/01:00am 12.2 11.4 6.5 68 2.7 CALM 0 0 0 0 1015.1 1014.9 0.0
24/12:30am 12.3 11.5 6.6 68 2.7 CALM 0 0 0 0 1015.1 1014.9 0.0
24/12:00am 13.0 12.4 7.2 68 2.8 CALM 0 0 0 0 1015.1 1014.9 0.0
 
Date/Time
WST
Temp
°C
App
Temp
°C
Dew
Point
°C
Rel
Hum
%
Delta-T
°C
Wind Press
QNH
hPa
Press
MSL
hPa
Rain since
9am
mm
Dir  Spd
km/h
Gust
km/h
Spd
kts
Gust
kts
23/11:30pm 13.6 12.6 7.4 66 3.0 ESE 2 7 1 4 1015.3 1015.1 0.0
23/11:00pm 14.2 13.6 7.3 63 3.4 CALM 0 2 0 1 1015.5 1015.3 0.0
23/10:30pm 14.9 14.1 6.7 58 4.0 CALM 0 0 0 0 1015.6 1015.4 0.0
23/10:00pm 15.3 14.7 7.6 60 3.8 CALM 0 0 0 0 1015.6 1015.4 0.0
23/09:30pm 16.2 15.0 6.6 53 4.7 ESE 2 6 1 3 1015.7 1015.5 0.0
23/09:00pm 18.0 16.1 7.7 51 5.2 ESE 7 7 4 4 1015.8 1015.6 0.0
23/08:30pm 18.2 15.6 4.0 39 6.7 ESE 7 9 4 5 1015.6 1015.4 0.0
23/08:00pm 18.2 16.0 5.1 42 6.3 ESE 6 7 3 4 1015.5 1015.3 0.0
23/07:30pm 19.4 17.7 5.8 41 6.7 ESE 4 7 2 4 1015.4 1015.2 0.0
23/07:00pm 19.7 19.0 6.8 43 6.5 CALM 0 0 0 0 1015.2 1015.0 0.0
23/06:30pm 21.8 20.6 4.4 32 8.5 CALM 0 0 0 0 1015.0 1014.8 0.0
23/06:27pm 21.9 20.7 4.5 32 8.5 CALM 0 0 0 0 1015.0 1014.8 0.0
23/06:00pm 27.0 23.3 -0.1 17 12.6 S 9 11 5 6 1014.6 1014.4 0.0
23/05:30pm 28.3 24.2 0.1 16 13.3 S 11 13 6 7 1014.3 1014.1 0.0
23/05:00pm 29.6 25.8 -0.7 14 14.3 S 9 11 5 6 1013.9 1013.7 0.0
23/04:30pm 31.6 27.7 -5.1 9 16.3 S 7 11 4 6 1013.7 1013.5 0.0
23/04:00pm 32.1 27.8 -4.7 9 16.5 SSW 9 13 5 7 1013.6 1013.4 0.0
23/03:30pm 32.0 27.2 -6.3 8 16.7 S 11 15 6 8 1013.4 1013.2 0.0
23/03:00pm 32.1 27.8 -4.7 9 16.5 SSW 9 13 5 7 1013.5 1013.3 0.0
23/02:30pm 32.1 27.4 -4.7 9 16.5 S 11 17 6 9 1013.6 1013.4 0.0
23/02:00pm 32.1 28.2 -4.7 9 16.5 SE 7 13 4 7 1013.9 1013.7 0.0
23/01:30pm 32.5 28.7 -6.0 8 16.9 WSW 6 17 3 9 1014.2 1014.0 0.0
23/01:00pm 31.5 27.0 -6.7 8 16.5 ESE 9 17 5 9 1014.6 1014.4 0.0
23/12:30pm 31.0 25.7 -7.1 8 16.2 SSE 13 22 7 12 1015.1 1014.9 0.0
23/12:00pm 31.5 26.4 -5.2 9 16.2 SSE 13 24 7 13 1015.5 1015.3 0.0
23/11:30am 30.1 24.4 -7.7 8 15.8 SE 15 22 8 12 1016.1 1015.9 0.0
23/11:00am 30.2 23.7 -7.7 8 15.9 SE 19 28 10 15 1016.6 1016.5 0.0
23/10:30am 29.6 24.0 -6.6 9 15.4 SE 15 22 8 12 1017.3 1017.2 0.0
23/10:00am 28.7 22.6 -7.3 9 15.0 ESE 17 24 9 13 1017.8 1017.7 0.0

Other formats

Comma delimited format used in spreadsheet applications
http://www.bom.gov.au/fwo/IDW60801/IDW60801.94216.axf

JavaScript Object Notation format (JSON) in row-major order
http://www.bom.gov.au/fwo/IDW60801/IDW60801.94216.json

Data quality

Most of these data are generated automatically and are frequently updated. Quality checks on data are not normally performed. It is possible for incorrect values to appear. Refer to information at About Latest Weather Observations and please check the disclaimer before using these data.